Terminal Aerodrome Forecast
Issued by NWS

Home | Current Version | Previous Version | Text Only | Print | Product List | Glossary On
Versions: 1 2 3 4 5 6 7 8 9 10 11 12
042
FTUS45 KTFX 202322
TAFHVR
TAF
KHVR 202322Z 2100/2124 23009KT P6SM SCT200
     FM211600 23015KT P6SM SCT050 BKN200
     FM212200 26025G35KT P6SM BKN080=

USA.gov is the U.S. government's official web portal to all federal, state and local government web resources and services.